Time;durP1;ratioP1;P1;durP2;ratioP2;P2;SDS_P1;SDS_P2;PMS_P1;PMS_P2;Temp;Humidity;BMP_temperature;BMP_pressure;BME280_temperature;BME280_humidity;BME280_pressure;Samples;Min_cycle;Max_cycle;Signal;HPM_P1;HPM_P2
2023/06/13 00:00:46;;;;;;;;;;;25.20;42.70;;;;;;5073645;28;19920;-65
2023/06/13 00:03:13;;;;;;;;;;;25.20;42.70;;;;;;5073773;28;19928;-65
2023/06/13 00:05:41;;;;;;;;;;;25.20;42.80;;;;;;5072619;28;19974;-65
2023/06/13 00:08:07;;;;;;;;;;;25.20;42.80;;;;;;5072260;28;20156;-64
2023/06/13 00:10:32;;;;;;;;;;;25.20;42.80;;;;;;5073416;28;20404;-65
2023/06/13 00:12:58;;;;;;;;;;;25.20;42.80;;;;;;5055760;28;19931;-65
2023/06/13 00:15:26;;;;;;;;;;;25.10;42.80;;;;;;5073240;28;19920;-65
2023/06/13 00:17:53;;;;;;;;;;;25.20;42.80;;;;;;5073522;28;19928;-65
2023/06/13 00:20:18;;;;;;;;;;;25.10;42.80;;;;;;5072206;28;19943;-65
2023/06/13 00:22:45;;;;;;;;;;;25.10;42.80;;;;;;5073238;28;19924;-66
2023/06/13 00:25:13;;;;;;;;;;;25.10;42.80;;;;;;5072118;28;19920;-65
2023/06/13 00:27:39;;;;;;;;;;;25.10;42.80;;;;;;5054897;28;20398;-65
2023/06/13 00:30:05;;;;;;;;;;;25.10;42.80;;;;;;5071560;28;19925;-64
2023/06/13 00:32:30;;;;;;;;;;;25.10;42.80;;;;;;5055149;28;19928;-65
2023/06/13 00:34:56;;;;;;;;;;;25.10;42.80;;;;;;5072923;28;19920;-64
2023/06/13 00:37:22;;;;;;;;;;;25.00;42.80;;;;;;5055248;28;19921;-65
2023/06/13 00:39:47;;;;;;;;;;;25.00;42.80;;;;;;5072964;28;19928;-65
2023/06/13 00:42:13;;;;;;;;;;;25.00;42.80;;;;;;5055322;28;19943;-65
2023/06/13 00:44:38;;;;;;;;;;;25.00;42.80;;;;;;5054689;28;20003;-65
2023/06/13 00:47:04;;;;;;;;;;;25.00;42.80;;;;;;5054883;28;19925;-65
2023/06/13 00:49:30;;;;;;;;;;;25.00;42.80;;;;;;5072732;28;19920;-65
2023/06/13 00:52:00;;;;;;;;;;;24.90;42.80;;;;;;5071696;28;20022;-65
2023/06/13 00:54:26;;;;;;;;;;;25.00;42.90;;;;;;5054787;28;19924;-65
2023/06/13 00:56:52;;;;;;;;;;;25.00;42.80;;;;;;5072216;28;19963;-65
2023/06/13 00:59:17;;;;;;;;;;;24.90;42.80;;;;;;5054516;28;20390;-65
2023/06/13 01:01:43;;;;;;;;;;;24.90;42.90;;;;;;5072731;28;20314;-65
2023/06/13 01:04:09;;;;;;;;;;;24.90;42.90;;;;;;5054983;28;20391;-64
2023/06/13 01:06:40;;;;;;;;;;;24.90;42.90;;;;;;5072363;28;19924;-65
2023/06/13 01:09:06;;;;;;;;;;;24.90;42.90;;;;;;5054603;28;19920;-65
2023/06/13 01:11:40;;;;;;;;;;;24.90;42.90;;;;;;5071447;28;19920;-66
2023/06/13 01:14:30;;;;;;;;;;;24.80;42.80;;;;;;5072356;28;19973;-65
2023/06/13 01:17:01;;;;;;;;;;;24.80;42.90;;;;;;5054607;28;19970;-67
2023/06/13 01:19:43;;;;;;;;;;;24.80;42.90;;;;;;5054531;28;20383;-65
2023/06/13 01:22:29;;;;;;;;;;;24.80;42.90;;;;;;5072856;28;19920;-67
2023/06/13 01:27:37;;;;;;;;;;;24.80;42.90;;;;;;5089931;28;19919;-65
2023/06/13 01:30:03;;;;;;;;;;;24.80;43.70;;;;;;5088587;28;19921;-65
2023/06/13 01:32:29;;;;;;;;;;;24.80;42.90;;;;;;5088994;28;19920;-65
2023/06/13 01:34:55;;;;;;;;;;;24.70;42.80;;;;;;5089031;28;19971;-66
2023/06/13 01:37:21;;;;;;;;;;;24.70;42.90;;;;;;5088403;28;20431;-65
2023/06/13 01:39:46;;;;;;;;;;;24.70;42.80;;;;;;5088795;28;19920;-65
2023/06/13 01:42:12;;;;;;;;;;;24.70;42.90;;;;;;5088371;28;19928;-65
2023/06/13 01:44:37;;;;;;;;;;;24.70;42.90;;;;;;5088824;28;19924;-65
2023/06/13 01:49:53;;;;;;;;;;;24.70;42.90;;;;;;5089840;28;20384;-65
2023/06/13 01:55:02;;;;;;;;;;;24.70;42.90;;;;;;5110356;27;20371;-64
2023/06/13 01:57:32;;;;;;;;;;;24.70;42.90;;;;;;5109201;28;19977;-65
2023/06/13 01:59:59;;;;;;;;;;;24.60;42.80;;;;;;5108949;28;19927;-67
2023/06/13 02:02:25;;;;;;;;;;;24.60;42.80;;;;;;5109060;28;19927;-65
2023/06/13 02:04:51;;;;;;;;;;;24.60;42.90;;;;;;5108914;28;20383;-65
2023/06/13 02:07:16;;;;;;;;;;;24.60;42.80;;;;;;5110050;28;19924;-65
2023/06/13 02:09:44;;;;;;;;;;;24.60;42.90;;;;;;5109121;28;19973;-65
2023/06/13 02:12:10;;;;;;;;;;;24.50;42.80;;;;;;5108997;28;19924;-65
2023/06/13 02:14:36;;;;;;;;;;;24.50;42.80;;;;;;5108529;28;19924;-65
2023/06/13 02:17:02;;;;;;;;;;;24.50;42.80;;;;;;5108890;28;19920;-65
2023/06/13 02:19:28;;;;;;;;;;;24.50;42.80;;;;;;5109759;28;19920;-65
2023/06/13 02:21:53;;;;;;;;;;;24.50;42.80;;;;;;5108563;28;19945;-65
2023/06/13 02:24:20;;;;;;;;;;;24.50;42.80;;;;;;5108353;28;20013;-65
2023/06/13 02:26:45;;;;;;;;;;;24.50;42.80;;;;;;5108903;28;19993;-65
2023/06/13 02:29:11;;;;;;;;;;;24.50;42.80;;;;;;5108517;28;20001;-65
2023/06/13 02:31:38;;;;;;;;;;;24.50;42.80;;;;;;5108679;28;19927;-65
2023/06/13 02:34:03;;;;;;;;;;;24.50;42.80;;;;;;5108157;28;20034;-65
2023/06/13 02:36:29;;;;;;;;;;;24.40;42.80;;;;;;5109673;28;20416;-65
2023/06/13 02:38:55;;;;;;;;;;;24.40;42.80;;;;;;5108489;28;20016;-65
2023/06/13 02:41:20;;;;;;;;;;;24.40;42.80;;;;;;5108491;28;19924;-65
2023/06/13 02:43:46;;;;;;;;;;;24.40;42.80;;;;;;5109345;28;19926;-65
2023/06/13 02:46:11;;;;;;;;;;;24.40;42.90;;;;;;5108405;28;20376;-65
2023/06/13 02:48:36;;;;;;;;;;;24.40;42.80;;;;;;5108113;28;19927;-65
2023/06/13 02:51:02;;;;;;;;;;;24.30;42.80;;;;;;5108335;28;20010;-64
2023/06/13 02:53:28;;;;;;;;;;;24.40;42.80;;;;;;5107650;28;19931;-65
2023/06/13 02:55:54;;;;;;;;;;;24.30;42.80;;;;;;5108063;28;20015;-65
2023/06/13 02:58:20;;;;;;;;;;;24.30;42.80;;;;;;5108015;28;19920;-65
2023/06/13 03:00:47;;;;;;;;;;;24.30;42.80;;;;;;5107998;28;19935;-65
2023/06/13 03:03:12;;;;;;;;;;;24.30;42.80;;;;;;5108948;28;19920;-65
2023/06/13 03:05:38;;;;;;;;;;;24.30;42.80;;;;;;5098056;28;19926;-65
2023/06/13 03:08:04;;;;;;;;;;;24.30;42.70;;;;;;5093993;28;19920;-65
2023/06/13 03:10:29;;;;;;;;;;;24.30;42.70;;;;;;5095295;28;20011;-65
2023/06/13 03:12:55;;;;;;;;;;;24.30;42.80;;;;;;5095148;28;19967;-65
2023/06/13 03:15:20;;;;;;;;;;;24.20;42.70;;;;;;5094122;28;20010;-65
2023/06/13 03:17:46;;;;;;;;;;;24.20;42.80;;;;;;5128382;27;19971;-65
2023/06/13 03:20:11;;;;;;;;;;;24.20;42.80;;;;;;5093994;28;19927;-65
2023/06/13 03:22:37;;;;;;;;;;;24.20;42.80;;;;;;5094114;28;20383;-65
2023/06/13 03:25:03;;;;;;;;;;;24.20;42.80;;;;;;5093978;28;19921;-65
2023/06/13 03:27:29;;;;;;;;;;;24.20;42.80;;;;;;5093750;28;19921;-65
2023/06/13 03:29:54;;;;;;;;;;;24.10;42.80;;;;;;5093831;28;20081;-65
2023/06/13 03:32:20;;;;;;;;;;;24.10;42.80;;;;;;5093596;28;19924;-66
2023/06/13 03:34:45;;;;;;;;;;;24.10;42.80;;;;;;5093388;28;20307;-65
2023/06/13 03:37:11;;;;;;;;;;;24.10;42.80;;;;;;5094683;28;19923;-65
2023/06/13 03:39:37;;;;;;;;;;;24.10;42.80;;;;;;5094908;28;19924;-65
2023/06/13 03:42:03;;;;;;;;;;;24.10;42.80;;;;;;5093642;28;19973;-65
2023/06/13 03:44:28;;;;;;;;;;;24.10;42.80;;;;;;5093612;28;19920;-65
2023/06/13 03:46:55;;;;;;;;;;;24.10;42.80;;;;;;5093281;28;19946;-66
2023/06/13 03:49:21;;;;;;;;;;;24.10;42.90;;;;;;5093567;28;19924;-66
2023/06/13 03:51:47;;;;;;;;;;;24.10;42.90;;;;;;5094382;28;19920;-65
2023/06/13 03:54:12;;;;;;;;;;;24.10;42.90;;;;;;5092998;28;19959;-65
2023/06/13 03:56:37;;;;;;;;;;;24.00;42.90;;;;;;5094255;28;19926;-65
2023/06/13 03:59:03;;;;;;;;;;;24.00;42.90;;;;;;5093407;28;19920;-65
2023/06/13 04:01:28;;;;;;;;;;;24.00;43.00;;;;;;5093330;28;20319;-64
2023/06/13 04:03:54;;;;;;;;;;;24.00;43.00;;;;;;5092962;28;20288;-64
2023/06/13 04:06:20;;;;;;;;;;;24.00;43.00;;;;;;5093193;28;19924;-65
2023/06/13 04:08:46;;;;;;;;;;;24.00;43.00;;;;;;5094219;28;20513;-65
2023/06/13 04:11:12;;;;;;;;;;;24.00;43.00;;;;;;5093353;28;19920;-65
2023/06/13 04:13:37;;;;;;;;;;;23.90;43.00;;;;;;5094075;28;20023;-65
2023/06/13 04:16:03;;;;;;;;;;;23.90;43.10;;;;;;5093491;28;20364;-65
2023/06/13 04:18:29;;;;;;;;;;;23.90;43.10;;;;;;5093585;28;19927;-65
2023/06/13 04:20:55;;;;;;;;;;;23.90;43.10;;;;;;5093891;28;19920;-65
2023/06/13 04:23:21;;;;;;;;;;;23.90;43.10;;;;;;5093072;28;19927;-65
2023/06/13 04:25:47;;;;;;;;;;;23.90;43.10;;;;;;5092874;28;20364;-65
2023/06/13 04:28:13;;;;;;;;;;;23.90;43.20;;;;;;5093724;28;19927;-65
2023/06/13 04:30:40;;;;;;;;;;;23.90;43.20;;;;;;5092684;28;19920;-64
2023/06/13 04:33:14;;;;;;;;;;;23.90;43.20;;;;;;5092518;28;19930;-65
2023/06/13 04:35:44;;;;;;;;;;;23.80;43.20;;;;;;5092518;28;19920;-65
2023/06/13 04:38:11;;;;;;;;;;;23.90;43.30;;;;;;5092323;28;19927;-65
2023/06/13 04:40:37;;;;;;;;;;;23.80;43.20;;;;;;5092558;28;20368;-65
2023/06/13 04:43:04;;;;;;;;;;;23.80;43.30;;;;;;5092221;28;19973;-65
2023/06/13 04:45:30;;;;;;;;;;;23.80;43.30;;;;;;5092217;28;20437;-65
2023/06/13 04:47:57;;;;;;;;;;;23.80;43.30;;;;;;5092523;28;19920;-65
2023/06/13 04:50:24;;;;;;;;;;;23.80;43.30;;;;;;5092045;28;19969;-65
2023/06/13 04:52:53;;;;;;;;;;;23.80;43.40;;;;;;5095693;28;20386;-64
2023/06/13 04:55:21;;;;;;;;;;;23.80;43.40;;;;;;5095423;28;19924;-65
2023/06/13 04:57:46;;;;;;;;;;;23.80;43.40;;;;;;5095545;28;19924;-65
2023/06/13 05:00:12;;;;;;;;;;;23.70;43.40;;;;;;5095538;28;19920;-65
2023/06/13 05:02:41;;;;;;;;;;;23.80;43.40;;;;;;5129410;27;19920;-65
2023/06/13 05:05:08;;;;;;;;;;;23.70;43.40;;;;;;5095131;28;19930;-64
2023/06/13 05:07:34;;;;;;;;;;;23.80;43.50;;;;;;5113397;28;19920;-65
2023/06/13 05:10:02;;;;;;;;;;;23.80;43.50;;;;;;5095315;28;19927;-65
2023/06/13 05:12:27;;;;;;;;;;;23.80;43.50;;;;;;5095410;28;19919;-65
2023/06/13 05:14:54;;;;;;;;;;;23.70;43.40;;;;;;5094866;28;19934;-65
2023/06/13 05:17:20;;;;;;;;;;;23.70;43.50;;;;;;5095285;28;19924;-65
2023/06/13 05:19:46;;;;;;;;;;;23.70;43.40;;;;;;5113051;28;19920;-65
2023/06/13 05:22:12;;;;;;;;;;;23.70;43.40;;;;;;5095478;28;19969;-65
2023/06/13 05:24:37;;;;;;;;;;;23.70;43.40;;;;;;5112934;28;19920;-65
2023/06/13 05:27:03;;;;;;;;;;;23.70;43.40;;;;;;5094839;28;20402;-65
2023/06/13 05:29:29;;;;;;;;;;;23.70;43.50;;;;;;5094443;28;20006;-65
2023/06/13 05:31:55;;;;;;;;;;;23.70;43.50;;;;;;5095074;28;20189;-65
2023/06/13 05:34:21;;;;;;;;;;;23.70;43.50;;;;;;5094651;28;19959;-65
2023/06/13 05:36:47;;;;;;;;;;;23.70;43.50;;;;;;5112838;28;20524;-65
2023/06/13 05:39:12;;;;;;;;;;;23.70;43.40;;;;;;5094271;28;19966;-65
2023/06/13 05:41:39;;;;;;;;;;;23.70;43.60;;;;;;5094116;28;20416;-65
2023/06/13 05:44:05;;;;;;;;;;;23.70;43.60;;;;;;5092512;28;20454;-65
2023/06/13 05:46:30;;;;;;;;;;;23.70;43.50;;;;;;5089850;28;20011;-70
2023/06/13 05:48:56;;;;;;;;;;;23.70;43.70;;;;;;5106620;28;19919;-66
2023/06/13 05:51:21;;;;;;;;;;;23.70;43.30;;;;;;5088862;28;20304;-67
2023/06/13 05:53:47;;;;;;;;;;;23.70;43.20;;;;;;5087041;28;19981;-66
2023/06/13 05:56:12;;;;;;;;;;;23.80;43.00;;;;;;5107946;28;19978;-67
2023/06/13 05:58:38;;;;;;;;;;;23.80;42.60;;;;;;5088936;28;20359;-66
2023/06/13 06:01:03;;;;;;;;;;;23.80;42.70;;;;;;5087678;28;19919;-67
2023/06/13 06:03:29;;;;;;;;;;;23.80;42.50;;;;;;5108072;28;19920;-66
2023/06/13 06:05:55;;;;;;;;;;;23.70;42.30;;;;;;5090047;28;20018;-66
2023/06/13 06:08:20;;;;;;;;;;;23.70;42.10;;;;;;5089504;28;19928;-66
2023/06/13 06:10:49;;;;;;;;;;;23.80;42.00;;;;;;5105657;28;19919;-67
2023/06/13 06:13:14;;;;;;;;;;;23.70;41.90;;;;;;5084602;28;19935;-67
2023/06/13 06:15:40;;;;;;;;;;;23.70;41.90;;;;;;5084354;28;19987;-64
2023/06/13 06:18:06;;;;;;;;;;;23.70;42.10;;;;;;5095434;28;19920;-62
2023/06/13 06:20:32;;;;;;;;;;;23.70;42.30;;;;;;5102196;28;20275;-64
2023/06/13 06:22:57;;;;;;;;;;;23.70;42.10;;;;;;5082921;28;19935;-62
2023/06/13 06:25:23;;;;;;;;;;;23.70;41.80;;;;;;5091775;28;19931;-64
2023/06/13 06:27:49;;;;;;;;;;;23.70;41.90;;;;;;5081793;28;20111;-63
2023/06/13 06:30:14;;;;;;;;;;;23.70;41.40;;;;;;5075862;28;20393;-63
2023/06/13 06:32:40;;;;;;;;;;;23.70;41.20;;;;;;5100660;28;19924;-63
2023/06/13 06:35:06;;;;;;;;;;;23.70;41.20;;;;;;5054481;28;19920;-63
2023/06/13 06:37:32;;;;;;;;;;;23.60;41.30;;;;;;5083118;28;20661;-64
2023/06/13 06:39:57;;;;;;;;;;;23.60;41.30;;;;;;5053391;28;19924;-64
2023/06/13 06:42:23;;;;;;;;;;;23.60;40.90;;;;;;5058179;28;19965;-63
2023/06/13 06:44:49;;;;;;;;;;;23.70;41.00;;;;;;5104033;27;19984;-64
2023/06/13 06:47:15;;;;;;;;;;;23.60;41.40;;;;;;5091670;27;19958;-64
2023/06/13 06:49:41;;;;;;;;;;;23.60;41.40;;;;;;5091812;28;20630;-64
2023/06/13 06:52:06;;;;;;;;;;;23.60;41.40;;;;;;5094548;28;19924;-65
2023/06/13 06:54:32;;;;;;;;;;;23.60;41.40;;;;;;5075838;28;19924;-65
2023/06/13 06:56:57;;;;;;;;;;;23.50;41.80;;;;;;5108378;27;20163;-66
2023/06/13 06:59:23;;;;;;;;;;;23.60;42.00;;;;;;5069501;28;19932;-64
2023/06/13 07:01:48;;;;;;;;;;;23.60;42.40;;;;;;5092669;28;19928;-63
2023/06/13 07:04:14;;;;;;;;;;;23.60;42.60;;;;;;5073043;28;19931;-64
2023/06/13 07:06:39;;;;;;;;;;;23.60;42.90;;;;;;5074438;28;20026;-66
2023/06/13 07:09:05;;;;;;;;;;;23.60;43.20;;;;;;5074495;28;19927;-66
2023/06/13 07:11:30;;;;;;;;;;;23.70;43.40;;;;;;5066491;28;19928;-66
2023/06/13 07:13:56;;;;;;;;;;;23.70;43.50;;;;;;5075402;28;20591;-67
2023/06/13 07:16:21;;;;;;;;;;;23.70;43.80;;;;;;5094783;28;20429;-64
2023/06/13 07:18:47;;;;;;;;;;;23.70;43.90;;;;;;5074000;28;19928;-69
2023/06/13 07:21:12;;;;;;;;;;;23.70;44.10;;;;;;5067995;28;20654;-63
2023/06/13 07:23:38;;;;;;;;;;;23.70;44.30;;;;;;5077479;28;19927;-64
2023/06/13 07:26:03;;;;;;;;;;;23.80;44.30;;;;;;5089741;28;19924;-65
2023/06/13 07:28:29;;;;;;;;;;;23.80;44.50;;;;;;5073799;28;19968;-67
2023/06/13 07:30:57;;;;;;;;;;;23.80;44.60;;;;;;5091158;28;19994;-74
2023/06/13 07:33:23;;;;;;;;;;;23.90;44.70;;;;;;5076950;28;19928;-68
2023/06/13 07:35:48;;;;;;;;;;;23.90;44.90;;;;;;5077017;28;19971;-67
2023/06/13 07:38:14;;;;;;;;;;;23.90;44.80;;;;;;5078716;28;19924;-72
2023/06/13 07:40:40;;;;;;;;;;;23.90;44.90;;;;;;5075822;28;19971;-68
2023/06/13 07:43:05;;;;;;;;;;;23.90;45.10;;;;;;5109889;27;20026;-71
2023/06/13 07:45:31;;;;;;;;;;;23.90;45.20;;;;;;5095411;28;19928;-68
2023/06/13 07:47:57;;;;;;;;;;;24.00;45.40;;;;;;5096586;27;19928;-68
2023/06/13 07:50:23;;;;;;;;;;;24.00;45.40;;;;;;5107945;27;20018;-67
2023/06/13 07:52:48;;;;;;;;;;;24.00;45.60;;;;;;5079523;28;20018;-64
2023/06/13 07:55:14;;;;;;;;;;;24.00;45.70;;;;;;5074533;28;19923;-65
2023/06/13 07:57:40;;;;;;;;;;;24.00;45.60;;;;;;5077312;28;19923;-67
2023/06/13 08:00:14;;;;;;;;;;;24.00;45.60;;;;;;5077696;28;19927;-67
2023/06/13 08:02:39;;;;;;;;;;;24.10;45.00;;;;;;5095933;27;19927;-68
2023/06/13 08:05:06;;;;;;;;;;;24.10;45.30;;;;;;5078655;27;20642;-69
2023/06/13 08:07:31;;;;;;;;;;;24.00;45.60;;;;;;5096065;27;20072;-70
2023/06/13 08:09:57;;;;;;;;;;;24.10;45.80;;;;;;5092884;27;20011;-73
2023/06/13 08:12:22;;;;;;;;;;;24.10;46.00;;;;;;5076844;28;19923;-69
2023/06/13 08:14:48;;;;;;;;;;;24.10;46.10;;;;;;5072612;28;20527;-67
2023/06/13 08:17:13;;;;;;;;;;;24.10;46.20;;;;;;5073639;28;19942;-67
2023/06/13 08:19:38;;;;;;;;;;;24.10;46.30;;;;;;5078004;28;19924;-67
2023/06/13 08:22:04;;;;;;;;;;;24.10;46.30;;;;;;5092714;28;19923;-67
2023/06/13 08:24:29;;;;;;;;;;;24.10;46.30;;;;;;5081417;28;19924;-71
2023/06/13 08:26:57;;;;;;;;;;;24.10;46.30;;;;;;5075421;28;19931;-68
2023/06/13 08:29:23;;;;;;;;;;;24.20;46.40;;;;;;5078119;28;19955;-69
2023/06/13 08:31:49;;;;;;;;;;;24.20;46.40;;;;;;5096780;28;19927;-68
2023/06/13 08:34:14;;;;;;;;;;;24.20;46.60;;;;;;5080575;28;19928;-67
2023/06/13 08:36:40;;;;;;;;;;;24.20;46.50;;;;;;5082327;28;19924;-67
2023/06/13 08:39:05;;;;;;;;;;;24.30;44.80;;;;;;5094451;28;20360;-66
2023/06/13 08:41:31;;;;;;;;;;;24.20;43.90;;;;;;5077586;28;19924;-66
2023/06/13 08:43:58;;;;;;;;;;;24.20;44.10;;;;;;5094860;28;19931;-67
2023/06/13 08:46:25;;;;;;;;;;;24.20;44.10;;;;;;5091219;28;19963;-65
2023/06/13 08:48:51;;;;;;;;;;;24.20;44.00;;;;;;5071638;28;19928;-66
2023/06/13 08:51:18;;;;;;;;;;;24.10;44.20;;;;;;5086588;28;20605;-69
2023/06/13 08:53:48;;;;;;;;;;;24.10;44.10;;;;;;5072363;28;20031;-65
2023/06/13 08:56:14;;;;;;;;;;;24.20;44.50;;;;;;5091245;28;20111;-64
2023/06/13 08:58:41;;;;;;;;;;;24.20;44.90;;;;;;5089602;28;20954;-65
2023/06/13 09:01:07;;;;;;;;;;;24.20;45.20;;;;;;5070798;28;20007;-65
2023/06/13 09:03:33;;;;;;;;;;;24.30;45.60;;;;;;5093881;27;20019;-70
2023/06/13 09:06:00;;;;;;;;;;;24.30;45.80;;;;;;5091904;28;19966;-64
2023/06/13 09:08:27;;;;;;;;;;;24.40;46.10;;;;;;5075420;28;19992;-69
2023/06/13 09:10:53;;;;;;;;;;;24.40;46.50;;;;;;5074945;28;19974;-68
2023/06/13 09:13:22;;;;;;;;;;;24.50;46.60;;;;;;5093986;27;19935;-65
2023/06/13 09:15:47;;;;;;;;;;;24.50;46.90;;;;;;5075282;28;19930;-64
2023/06/13 09:18:14;;;;;;;;;;;24.50;47.10;;;;;;5076703;28;20486;-65
2023/06/13 09:20:40;;;;;;;;;;;24.60;47.20;;;;;;5077912;28;19920;-68
2023/06/13 09:23:06;;;;;;;;;;;24.60;47.50;;;;;;5072725;28;19924;-66
2023/06/13 09:25:34;;;;;;;;;;;24.70;47.60;;;;;;5069568;28;21054;-67
2023/06/13 09:28:20;;;;;;;;;;;24.70;48.10;;;;;;5104515;27;19924;-66
2023/06/13 09:30:45;;;;;;;;;;;24.70;48.20;;;;;;5089811;28;19924;-70
2023/06/13 09:33:12;;;;;;;;;;;24.70;47.90;;;;;;5069747;28;20717;-70
2023/06/13 09:35:38;;;;;;;;;;;24.80;48.00;;;;;;5072074;28;20830;-66
2023/06/13 09:38:04;;;;;;;;;;;24.80;48.20;;;;;;5074007;28;20530;-68
2023/06/13 09:40:30;;;;;;;;;;;24.80;47.90;;;;;;5065965;28;19920;-67
2023/06/13 09:42:56;;;;;;;;;;;24.80;47.60;;;;;;5069851;28;19939;-63
2023/06/13 09:45:22;;;;;;;;;;;24.90;47.90;;;;;;5070223;28;19953;-70
2023/06/13 09:47:47;;;;;;;;;;;24.90;47.90;;;;;;5072242;28;19924;-64
2023/06/13 09:50:13;;;;;;;;;;;24.90;48.00;;;;;;5092449;28;19924;-65
2023/06/13 09:52:38;;;;;;;;;;;24.90;48.10;;;;;;5076565;28;20459;-63
2023/06/13 09:55:04;;;;;;;;;;;24.90;48.10;;;;;;5089947;28;19932;-66
2023/06/13 09:57:31;;;;;;;;;;;24.90;48.10;;;;;;5073009;28;19955;-69
2023/06/13 09:59:57;;;;;;;;;;;25.00;48.10;;;;;;5074544;28;19924;-71
2023/06/13 10:02:22;;;;;;;;;;;25.00;48.20;;;;;;5074784;28;20043;-65
2023/06/13 10:04:54;;;;;;;;;;;25.00;48.20;;;;;;5091921;28;19927;-63
2023/06/13 10:07:20;;;;;;;;;;;25.00;48.40;;;;;;5072503;28;19927;-68
2023/06/13 10:09:45;;;;;;;;;;;25.00;46.80;;;;;;5070177;28;19931;-67
2023/06/13 10:12:17;;;;;;;;;;;25.00;46.70;;;;;;5073732;28;19928;-65
2023/06/13 10:14:44;;;;;;;;;;;25.00;47.00;;;;;;5093689;27;19931;-64
2023/06/13 10:17:11;;;;;;;;;;;25.00;47.30;;;;;;5109979;27;20339;-64
2023/06/13 10:19:39;;;;;;;;;;;25.00;47.40;;;;;;5088908;28;19919;-65
2023/06/13 10:22:06;;;;;;;;;;;25.10;47.60;;;;;;5076342;28;20375;-66
2023/06/13 10:24:34;;;;;;;;;;;25.10;47.40;;;;;;5074058;28;20015;-68
2023/06/13 10:27:00;;;;;;;;;;;25.10;47.60;;;;;;5095008;28;19945;-68
2023/06/13 10:29:46;;;;;;;;;;;25.10;47.60;;;;;;5095372;28;19924;-65
2023/06/13 10:32:21;;;;;;;;;;;25.10;47.80;;;;;;5097018;28;19969;-64
2023/06/13 10:35:08;;;;;;;;;;;25.10;47.70;;;;;;5077862;28;19928;-66
2023/06/13 10:40:32;;;;;;;;;;;25.10;46.80;;;;;;5107122;27;1891570;-66
2023/06/13 10:43:02;;;;;;;;;;;25.10;45.60;;;;;;5157726;27;19982;-66
2023/06/13 10:45:29;;;;;;;;;;;25.00;45.60;;;;;;5145386;27;20515;-68
2023/06/13 10:47:57;;;;;;;;;;;25.00;44.40;;;;;;5147272;27;20525;-67
2023/06/13 10:50:23;;;;;;;;;;;25.00;44.60;;;;;;5162859;27;20039;-68
2023/06/13 10:52:49;;;;;;;;;;;25.00;45.30;;;;;;5148463;27;20009;-66
2023/06/13 10:55:31;;;;;;;;;;;25.00;45.60;;;;;;5145810;27;19979;-64
2023/06/13 10:57:57;;;;;;;;;;;25.10;45.80;;;;;;5162354;27;19929;-66
2023/06/13 11:03:05;;;;;;;;;;;25.10;46.10;;;;;;5063852;28;19924;-66
2023/06/13 11:05:32;;;;;;;;;;;25.10;46.30;;;;;;5068798;28;20005;-64
2023/06/13 11:07:58;;;;;;;;;;;25.20;46.50;;;;;;5050181;28;19936;-67
2023/06/13 11:10:24;;;;;;;;;;;25.20;46.60;;;;;;5051549;28;19925;-67
2023/06/13 11:12:49;;;;;;;;;;;25.20;46.80;;;;;;5073711;28;19936;-66
2023/06/13 11:15:20;;;;;;;;;;;25.20;46.90;;;;;;5054476;28;20003;-67
2023/06/13 11:18:05;;;;;;;;;;;25.20;46.90;;;;;;5054738;28;19936;-70
2023/06/13 11:20:31;;;;;;;;;;;25.20;46.90;;;;;;5066422;28;19921;-65
2023/06/13 11:22:56;;;;;;;;;;;25.20;46.90;;;;;;5063515;28;19929;-67
2023/06/13 11:25:22;;;;;;;;;;;25.20;47.00;;;;;;5056624;28;19920;-72
2023/06/13 11:27:48;;;;;;;;;;;25.30;47.10;;;;;;5054334;28;19925;-64
2023/06/13 11:30:14;;;;;;;;;;;25.30;47.10;;;;;;5067362;28;19925;-65
2023/06/13 11:32:40;;;;;;;;;;;25.30;47.10;;;;;;5054578;28;20214;-66
2023/06/13 11:35:08;;;;;;;;;;;25.30;47.00;;;;;;5045381;28;20519;-66
2023/06/13 11:37:38;;;;;;;;;;;25.30;47.10;;;;;;5055826;28;20070;-66
2023/06/13 11:40:08;;;;;;;;;;;25.40;47.10;;;;;;5056399;28;20456;-66
2023/06/13 11:42:33;;;;;;;;;;;25.40;47.20;;;;;;5053835;28;19978;-68
2023/06/13 11:44:59;;;;;;;;;;;25.40;47.10;;;;;;5055989;28;20553;-66
2023/06/13 11:47:24;;;;;;;;;;;25.40;47.10;;;;;;5058858;28;19982;-64
2023/06/13 11:49:55;;;;;;;;;;;25.40;46.90;;;;;;5053588;28;19932;-66
2023/06/13 11:52:21;;;;;;;;;;;25.40;46.30;;;;;;5067223;28;19932;-63
2023/06/13 11:54:47;;;;;;;;;;;25.40;46.10;;;;;;5048410;28;19979;-63
2023/06/13 11:57:14;;;;;;;;;;;25.50;46.40;;;;;;5031210;28;19925;-68
2023/06/13 11:59:40;;;;;;;;;;;25.50;46.50;;;;;;5068575;28;20015;-69
2023/06/13 12:02:06;;;;;;;;;;;25.50;46.60;;;;;;5048453;28;19939;-69
2023/06/13 12:04:31;;;;;;;;;;;25.50;46.70;;;;;;5050133;28;19932;-69
2023/06/13 12:06:57;;;;;;;;;;;25.50;46.50;;;;;;5068575;28;19932;-68
2023/06/13 12:09:25;;;;;;;;;;;25.50;46.20;;;;;;5052214;28;19979;-65
2023/06/13 12:11:51;;;;;;;;;;;25.50;45.40;;;;;;5073172;28;20419;-66
2023/06/13 12:14:20;;;;;;;;;;;25.50;45.20;;;;;;5037935;28;20392;-67
2023/06/13 12:16:48;;;;;;;;;;;25.50;44.50;;;;;;5040527;28;19929;-67
2023/06/13 12:19:17;;;;;;;;;;;25.60;44.70;;;;;;5036834;28;20019;-66
2023/06/13 12:21:43;;;;;;;;;;;25.60;44.80;;;;;;5039081;28;19928;-65
2023/06/13 12:24:09;;;;;;;;;;;25.60;44.70;;;;;;5038913;28;20324;-64
2023/06/13 12:26:35;;;;;;;;;;;25.60;44.70;;;;;;5039696;28;19940;-68
2023/06/13 12:29:03;;;;;;;;;;;25.60;44.50;;;;;;5039213;28;19924;-64
2023/06/13 12:31:30;;;;;;;;;;;25.60;44.60;;;;;;5033737;28;19979;-65
2023/06/13 12:34:03;;;;;;;;;;;25.60;45.10;;;;;;5031446;28;20165;-63
2023/06/13 12:36:32;;;;;;;;;;;25.70;45.60;;;;;;5038047;28;20331;-64
2023/06/13 12:38:59;;;;;;;;;;;25.70;45.90;;;;;;5035571;28;19928;-63
2023/06/13 12:41:26;;;;;;;;;;;25.70;46.50;;;;;;5040450;28;19967;-63
2023/06/13 12:43:51;;;;;;;;;;;25.80;47.00;;;;;;5042642;28;19920;-65
2023/06/13 12:46:17;;;;;;;;;;;25.80;47.30;;;;;;5038292;28;19931;-64
2023/06/13 12:48:43;;;;;;;;;;;25.90;47.50;;;;;;5041449;28;20296;-67
2023/06/13 12:51:25;;;;;;;;;;;25.90;47.60;;;;;;5039828;28;19925;-63
2023/06/13 12:53:50;;;;;;;;;;;25.90;47.70;;;;;;5035368;28;19973;-65
2023/06/13 12:56:15;;;;;;;;;;;25.90;47.40;;;;;;5031394;28;19925;-71
2023/06/13 12:58:42;;;;;;;;;;;25.90;47.50;;;;;;5034223;28;19932;-64
2023/06/13 13:01:07;;;;;;;;;;;25.90;48.10;;;;;;5039549;28;19939;-73
2023/06/13 13:03:34;;;;;;;;;;;26.00;47.90;;;;;;5036054;28;19924;-66
2023/06/13 13:06:00;;;;;;;;;;;26.00;47.10;;;;;;5035930;28;20039;-69
2023/06/13 13:08:26;;;;;;;;;;;25.90;45.80;;;;;;5049151;28;19924;-65
2023/06/13 13:10:52;;;;;;;;;;;25.90;45.30;;;;;;5036812;28;19925;-67
2023/06/13 13:13:18;;;;;;;;;;;26.00;45.40;;;;;;5055075;28;19925;-66
2023/06/13 13:15:44;;;;;;;;;;;26.00;45.90;;;;;;5040785;28;19935;-65
2023/06/13 13:18:11;;;;;;;;;;;26.00;46.20;;;;;;5036608;28;19920;-67
2023/06/13 13:20:36;;;;;;;;;;;26.00;46.20;;;;;;5037342;28;19925;-66
2023/06/13 13:23:02;;;;;;;;;;;26.00;44.60;;;;;;5039773;28;19925;-68
2023/06/13 13:25:27;;;;;;;;;;;26.00;44.60;;;;;;5044050;28;19929;-68
2023/06/13 13:27:53;;;;;;;;;;;26.00;44.00;;;;;;5044872;28;19928;-68
2023/06/13 13:30:18;;;;;;;;;;;26.00;44.00;;;;;;5044126;28;19928;-69
2023/06/13 13:32:46;;;;;;;;;;;26.00;42.90;;;;;;5045034;28;19928;-67
2023/06/13 13:35:12;;;;;;;;;;;25.90;41.80;;;;;;5044161;28;19928;-67
2023/06/13 13:37:38;;;;;;;;;;;25.90;41.80;;;;;;5044488;28;19925;-67
2023/06/13 13:40:04;;;;;;;;;;;25.90;41.70;;;;;;5043238;28;20039;-66
2023/06/13 13:42:36;;;;;;;;;;;25.90;42.00;;;;;;5028987;28;19996;-67
2023/06/13 13:45:02;;;;;;;;;;;25.90;41.90;;;;;;5044985;28;19929;-66
2023/06/13 13:47:27;;;;;;;;;;;25.90;42.10;;;;;;5040903;28;20356;-67
2023/06/13 13:49:53;;;;;;;;;;;25.80;42.40;;;;;;5044348;28;19920;-66
2023/06/13 13:52:19;;;;;;;;;;;25.80;41.90;;;;;;5032219;28;19933;-66
2023/06/13 13:54:44;;;;;;;;;;;25.90;42.00;;;;;;5041396;28;19921;-66
2023/06/13 13:57:10;;;;;;;;;;;25.80;41.90;;;;;;5044788;28;19920;-66
2023/06/13 13:59:35;;;;;;;;;;;25.90;42.10;;;;;;5060465;28;19931;-66
2023/06/13 14:02:01;;;;;;;;;;;25.90;42.10;;;;;;5040830;28;20039;-66
2023/06/13 14:04:28;;;;;;;;;;;25.90;42.20;;;;;;5037643;28;20555;-66
2023/06/13 14:06:53;;;;;;;;;;;25.80;42.20;;;;;;5045608;28;19920;-67
2023/06/13 14:09:19;;;;;;;;;;;25.80;42.30;;;;;;5045892;28;19999;-67
2023/06/13 14:11:44;;;;;;;;;;;25.80;42.40;;;;;;5046974;28;20011;-67
2023/06/13 14:14:10;;;;;;;;;;;25.80;42.40;;;;;;5044647;28;19935;-67
2023/06/13 14:16:35;;;;;;;;;;;25.80;42.40;;;;;;5062098;28;19948;-67
2023/06/13 14:19:01;;;;;;;;;;;25.80;42.50;;;;;;5046046;28;20008;-67
2023/06/13 14:21:26;;;;;;;;;;;25.80;42.50;;;;;;5045843;28;19925;-67
2023/06/13 14:23:53;;;;;;;;;;;25.80;42.50;;;;;;5044952;28;19990;-66
2023/06/13 14:26:20;;;;;;;;;;;25.80;42.60;;;;;;5053106;28;20380;-66